.
WxDataArchive / Data Records for 2013-04-03
2013-04-02 April 2013 2013-04-04

Data Records for Wednesday, 03 April 2013

Time	Temp	Chill	HIndex	Humid	Dewpt	 Wind 	HiWind	WindDir	Rain 	Barom 
-----	----	-----	------	-----	-----	------	------	-------	-----	----- 
00:00	26.6	26.6	26.6	49	10.0	0	0	---	0.00	30.295 
00:05	26.4	26.4	26.4	50	10.3	0	0	---	0.00	30.295 
00:10	26.3	26.3	26.3	49	9.8	0	0	---	0.00	30.295 
00:15	26.1	26.1	26.1	50	10.0	0	0	---	0.00	30.294 
00:20	26.1	26.1	26.1	49	9.6	0	0	---	0.00	30.294 
00:25	26.1	26.1	26.1	50	10.0	0	0	---	0.00	30.294 
00:30	26.0	26.0	26.0	51	10.4	0	0	---	0.00	30.297 
00:35	25.8	25.8	25.8	51	10.2	0	0	---	0.00	30.297 
00:40	25.7	25.7	25.7	52	10.5	0	0	---	0.00	30.297 
00:45	25.6	25.6	25.6	52	10.4	0	0	---	0.00	30.294 
00:50	25.4	25.4	25.4	53	10.7	0	0	---	0.00	30.294 
00:55	25.3	25.3	25.3	53	10.6	0	0	---	0.00	30.294 
01:00	25.1	25.1	25.1	54	10.8	0	0	---	0.00	30.296 
01:05	25.0	25.0	25.0	55	11.1	0	0	---	0.00	30.296 
01:10	24.7	24.7	24.7	55	10.9	0	0	---	0.00	30.296 
01:15	24.5	24.5	24.5	57	11.5	0	0	---	0.00	30.300 
01:20	24.2	24.2	24.2	57	11.2	0	0	---	0.00	30.300 
01:25	24.1	24.1	24.1	57	11.1	0	0	---	0.00	30.300 
01:30	23.8	23.8	23.8	58	11.2	0	0	---	0.00	30.306 
01:35	23.6	23.6	23.6	58	11.0	0	0	---	0.00	30.306 
01:40	23.5	23.5	23.5	58	10.9	0	0	---	0.00	30.306 
01:45	23.3	23.3	23.3	60	11.5	0	0	---	0.00	30.308 
01:50	23.2	23.2	23.2	60	11.4	0	0	---	0.00	30.308 
01:55	23.0	23.0	23.0	61	11.6	0	0	---	0.00	30.308 
02:00	22.9	22.9	22.9	61	11.5	0	0	---	0.00	30.307 
02:05	22.9	22.9	22.9	62	11.9	0	0	---	0.00	30.307 
02:10	22.7	22.7	22.7	62	11.7	0	0	---	0.00	30.307 
02:15	22.7	22.7	22.7	63	12.0	0	0	---	0.00	30.308 
02:20	22.5	22.5	22.5	64	12.2	0	0	---	0.00	30.308 
02:25	22.5	22.5	22.5	64	12.2	0	0	---	0.00	30.308 
02:30	22.5	22.5	22.5	64	12.2	0	0	---	0.00	30.309 
02:35	22.5	22.5	22.5	64	12.2	0	0	---	0.00	30.309 
02:40	22.4	22.4	22.4	64	12.1	0	0	---	0.00	30.309 
02:45	22.2	22.2	22.2	64	11.9	0	0	---	0.00	30.308 
02:50	22.2	22.2	22.2	64	11.9	0	0	---	0.00	30.308 
02:55	22.2	22.2	22.2	65	12.3	0	0	---	0.00	30.308 
03:00	22.4	22.4	22.4	65	12.4	0	0	---	0.00	30.309 
03:05	22.2	22.2	22.2	66	12.6	0	0	---	0.00	30.309 
03:10	22.1	22.1	22.1	66	12.5	0	0	---	0.00	30.309 
03:15	22.1	22.1	22.1	67	12.8	0	0	---	0.00	30.308 
03:20	22.1	22.1	22.1	67	12.8	0	0	---	0.00	30.308 
03:25	21.9	21.9	21.9	66	12.3	0	0	---	0.00	30.308 
03:30	21.8	21.8	21.8	66	12.2	0	0	---	0.00	30.308 
03:35	21.6	21.6	21.6	66	12.0	0	0	---	0.00	30.308 
03:40	21.4	21.4	21.4	66	11.8	0	0	---	0.00	30.308 
03:45	21.3	21.3	21.3	66	11.7	0	0	---	0.00	30.309 
03:50	21.1	21.1	21.1	66	11.5	0	0	---	0.00	30.309 
03:55	21.0	21.0	21.0	66	11.5	0	0	---	0.00	30.309 
04:00	20.6	20.6	20.6	67	11.4	0	0	---	0.00	30.314 
04:05	20.6	20.6	20.6	68	11.7	0	0	---	0.00	30.314 
04:10	20.6	20.6	20.6	69	12.1	0	0	---	0.00	30.314 
04:15	20.6	20.6	20.6	69	12.1	0	0	---	0.00	30.316 
04:20	20.6	20.6	20.6	69	12.1	0	0	---	0.00	30.316 
04:25	20.5	20.5	20.5	69	12.0	0	0	---	0.00	30.316 
04:30	20.3	20.3	20.3	69	11.8	0	0	---	0.00	30.325 
04:35	20.3	20.3	20.3	69	11.8	0	0	---	0.00	30.325 
04:40	20.2	20.2	20.2	69	11.7	0	0	---	0.00	30.325 
04:45	20.2	20.2	20.2	70	12.0	0	0	---	0.00	30.327 
04:50	20.0	20.0	20.0	70	11.8	0	0	---	0.00	30.327 
04:55	20.0	20.0	20.0	71	12.1	0	0	---	0.00	30.327 
05:00	20.2	20.2	20.2	71	12.3	0	0	---	0.00	30.328 
05:05	20.2	20.2	20.2	72	12.6	0	0	---	0.00	30.328 
05:10	20.2	20.2	20.2	72	12.6	0	0	---	0.00	30.328 
05:15	20.0	20.0	20.0	72	12.5	0	0	---	0.00	30.333 
05:20	20.0	20.0	20.0	72	12.5	0	0	---	0.00	30.333 
05:25	19.9	19.9	19.9	72	12.4	0	0	---	0.00	30.333 
05:30	20.0	20.0	20.0	72	12.5	0	0	---	0.00	30.340 
05:35	20.0	20.0	20.0	71	12.1	0	0	---	0.00	30.340 
05:40	20.0	20.0	20.0	71	12.1	0	0	---	0.00	30.340 
05:45	19.9	19.9	19.9	71	12.0	0	0	---	0.00	30.339 
05:50	19.9	19.9	19.9	72	12.4	0	0	---	0.00	30.339 
05:55	19.7	19.7	19.7	71	11.8	0	0	---	0.00	30.339 
06:00	19.7	19.7	19.7	72	12.2	0	0	---	0.00	30.343 
06:05	19.5	19.5	19.5	72	12.0	0	0	---	0.00	30.343 
06:10	19.5	19.5	19.5	72	12.0	0	0	---	0.00	30.343 
06:15	19.4	19.4	19.4	72	11.9	0	0	---	0.00	30.351 
06:20	19.4	19.4	19.4	72	11.9	0	0	---	0.00	30.351 
06:25	19.4	19.4	19.4	72	11.9	0	0	---	0.00	30.351 
06:30	19.4	19.4	19.4	72	11.9	0	0	---	0.00	30.361 
06:35	19.4	19.4	19.4	72	11.9	0	0	---	0.00	30.361 
06:40	19.4	19.4	19.4	72	11.9	0	0	---	0.00	30.361 
06:45	19.4	19.4	19.4	72	11.9	0	0	---	0.00	30.362 
06:50	19.4	19.4	19.4	72	11.9	0	0	---	0.00	30.362 
06:55	19.4	19.4	19.4	73	12.2	0	0	---	0.00	30.362 
07:00	19.4	19.4	19.4	73	12.2	0	0	---	0.00	30.365 
07:05	19.2	19.2	19.2	73	12.0	0	0	---	0.00	30.365 
07:10	19.2	19.2	19.2	73	12.0	0	0	---	0.00	30.365 
07:15	19.1	19.1	19.1	73	11.9	0	0	---	0.00	30.376 
07:20	19.1	19.1	19.1	74	12.2	0	0	---	0.00	30.376 
07:25	18.9	18.9	18.9	74	12.0	0	0	---	0.00	30.376 
07:30	18.8	18.8	18.8	74	11.9	0	0	---	0.00	30.378 
07:35	18.8	18.8	18.8	74	11.9	0	0	---	0.00	30.378 
07:40	18.8	18.8	18.8	75	12.2	0	0	---	0.00	30.378 
07:45	18.9	18.9	18.9	75	12.3	0	0	---	0.00	30.379 
07:50	18.9	18.9	18.9	75	12.3	0	0	---	0.00	30.379 
07:55	19.2	19.2	19.2	76	12.9	0	0	---	0.00	30.379 
08:00	19.7	19.7	19.7	76	13.4	0	0	---	0.00	30.381 
08:05	21.0	21.0	21.0	76	14.6	0	0	---	0.00	30.381 
08:10	22.2	22.2	22.2	74	15.2	0	1	0	0.00	30.381 
08:15	23.3	23.3	23.3	73	15.9	0	1	---	0.00	30.382 
08:20	24.2	24.2	24.2	71	16.2	0	1	0	0.00	30.382 
08:25	25.3	25.3	25.3	69	16.6	0	2	270	0.00	30.382 
08:30	26.1	26.1	26.1	66	16.3	0	3	270	0.00	30.380 
08:35	27.0	27.0	27.0	64	16.5	0	2	270	0.00	30.380 
08:40	27.6	27.6	27.6	62	16.3	1	4	270	0.00	30.380 
08:45	28.4	28.4	28.4	60	16.3	1	3	270	0.00	30.383 
08:50	29.0	29.0	29.0	59	16.5	0	3	270	0.00	30.383 
08:55	29.7	29.7	29.7	59	17.1	0	1	270	0.00	30.383 
09:00	30.3	30.3	30.3	58	17.3	0	1	270	0.00	30.386 
09:05	30.9	30.9	30.9	55	16.7	1	3	292	0.00	30.386 
09:10	31.5	31.5	31.5	54	16.8	1	5	292	0.00	30.386 
09:15	32.1	32.1	32.1	54	17.4	0	2	338	0.00	30.390 
09:20	32.5	32.5	32.5	52	16.9	1	3	338	0.00	30.390 
09:25	32.9	32.9	32.9	52	17.2	1	4	315	0.00	30.390 
09:30	33.4	33.4	33.4	51	17.2	0	3	248	0.00	30.401 
09:35	33.8	33.8	33.8	50	17.2	1	4	248	0.00	30.401 
09:40	34.1	34.1	34.1	51	17.9	1	3	248	0.00	30.401 
09:45	34.6	34.6	34.6	51	18.4	1	5	292	0.00	30.403 
09:50	34.9	34.9	34.9	51	18.6	1	3	315	0.00	30.403 
09:55	35.5	35.5	35.5	51	19.2	1	3	315	0.00	30.403 
10:00	35.6	35.6	35.6	48	17.9	2	4	338	0.00	30.414 
10:05	35.8	35.8	35.8	48	18.1	2	5	270	0.00	30.414 
10:10	35.8	35.8	35.8	49	18.5	2	6	0	0.00	30.414 
10:15	36.0	36.0	36.0	49	18.7	1	5	270	0.00	30.423 
10:20	36.5	36.5	36.5	50	19.6	1	5	225	0.00	30.423 
10:25	37.0	37.0	37.0	49	19.6	1	3	225	0.00	30.423 
10:30	37.5	37.5	37.5	48	19.6	1	5	338	0.00	30.421 
10:35	37.2	37.2	37.2	47	18.8	2	6	292	0.00	30.421 
10:40	37.6	37.6	37.6	47	19.2	1	3	338	0.00	30.421 
10:45	37.9	37.9	37.9	47	19.5	1	4	292	0.00	30.429 
10:50	38.0	38.0	38.0	46	19.1	1	4	315	0.00	30.429 
10:55	38.2	38.2	38.2	47	19.8	1	4	315	0.00	30.429 
11:00	37.9	37.9	37.9	47	19.5	1	4	248	0.00	30.435 
11:05	38.6	38.6	38.6	45	19.1	2	5	292	0.00	30.435 
11:10	38.8	38.8	38.8	43	18.2	1	3	292	0.00	30.435 
11:15	38.2	38.2	38.2	43	17.7	1	4	0	0.00	30.435 
11:20	38.9	38.9	38.9	46	19.9	1	4	338	0.00	30.435 
11:25	39.3	39.3	39.3	42	18.1	2	4	22	0.00	30.435 
11:30	39.3	39.3	39.3	41	17.6	1	4	315	0.00	30.437 
11:35	39.6	39.6	39.6	42	18.4	1	5	112	0.00	30.437 
11:40	40.1	40.1	40.1	39	17.2	1	4	338	0.00	30.437 
11:45	40.2	40.2	40.2	38	16.6	1	5	315	0.00	30.437 
11:50	40.2	40.2	40.2	36	15.4	1	4	0	0.00	30.437 
11:55	40.5	40.5	40.5	33	13.7	1	4	292	0.00	30.437 
12:00	40.6	40.6	40.6	33	13.8	1	4	0	0.00	30.434 
12:05	40.6	40.6	40.6	34	14.5	1	4	338	0.00	30.434 
12:10	40.3	40.3	40.3	34	14.2	1	4	338	0.00	30.434 
12:15	40.9	40.9	40.9	31	12.6	1	3	0	0.00	30.434 
12:20	41.3	41.3	41.3	31	13.0	1	5	338	0.00	30.434 
12:25	41.3	41.3	41.3	29	11.5	1	6	0	0.00	30.434 
12:30	41.2	41.2	41.2	29	11.4	2	6	338	0.00	30.434 
12:35	41.3	41.3	41.3	29	11.5	1	4	22	0.00	30.434 
12:40	41.5	41.5	41.5	28	10.9	2	9	90	0.00	30.434 
12:45	41.6	41.6	41.6	28	10.9	1	5	22	0.00	30.435 
12:50	41.9	41.9	41.9	28	11.2	1	7	112	0.00	30.435 
12:55	42.5	42.5	42.5	28	11.7	1	4	112	0.00	30.435 
13:00	42.6	42.6	42.6	27	11.0	1	3	338	0.00	30.433 
13:05	42.9	42.9	42.9	27	11.2	2	9	292	0.00	30.433 
13:10	42.6	42.6	42.6	25	9.3	2	6	270	0.00	30.433 
13:15	42.3	42.3	42.3	26	9.9	1	4	338	0.00	30.431 
13:20	42.6	42.6	42.6	28	11.8	1	4	338	0.00	30.431 
13:25	42.8	42.8	42.8	26	10.3	1	3	248	0.00	30.431 
13:30	42.9	42.9	42.9	26	10.4	1	3	248	0.00	30.430 
13:35	42.3	42.3	42.3	26	9.9	1	4	338	0.00	30.430 
13:40	42.5	42.5	42.5	26	10.1	1	6	338	0.00	30.430 
13:45	42.8	42.8	42.8	28	12.0	2	6	270	0.00	30.438 
13:50	42.8	42.8	42.8	26	10.3	2	5	248	0.00	30.438 
13:55	43.2	43.2	43.2	26	10.7	1	3	248	0.00	30.438 
14:00	43.6	43.6	43.6	24	9.2	1	2	248	0.00	30.433 
14:05	43.8	43.8	43.8	25	10.3	0	3	248	0.00	30.433 
14:10	43.3	43.3	43.3	24	9.0	2	5	338	0.00	30.433 
14:15	43.5	43.5	43.5	25	10.0	1	4	248	0.00	30.434 
14:20	43.5	43.5	43.5	27	11.8	1	4	270	0.00	30.434 
14:25	43.6	43.6	43.6	25	10.1	1	3	292	0.00	30.434 
14:30	43.8	43.8	43.8	23	8.4	1	2	248	0.00	30.423 
14:35	43.9	43.9	43.9	24	9.5	1	3	338	0.00	30.423 
14:40	44.1	44.1	44.1	23	8.7	1	4	338	0.00	30.423 
14:45	43.8	43.8	43.8	25	10.3	1	4	338	0.00	30.419 
14:50	43.9	43.9	43.9	25	10.4	1	4	292	0.00	30.419 
14:55	44.2	44.2	44.2	25	10.6	1	6	68	0.00	30.419 
15:00	44.6	44.6	44.6	23	9.1	1	6	90	0.00	30.416 
15:05	44.6	44.6	44.6	23	9.1	1	5	112	0.00	30.416 
15:10	44.5	44.5	44.5	23	9.0	2	5	90	0.00	30.416 
15:15	44.6	44.6	44.6	25	11.0	1	4	22	0.00	30.402 
15:20	44.9	44.9	44.9	23	9.4	0	3	315	0.00	30.402 
15:25	45.1	45.1	45.1	22	8.6	1	2	315	0.00	30.402 
15:30	45.2	45.2	45.2	25	11.5	0	2	315	0.00	30.396 
15:35	45.7	45.7	45.7	23	10.1	1	5	22	0.00	30.396 
15:40	45.4	45.4	45.4	25	11.7	1	5	90	0.00	30.396 
15:45	45.4	45.4	45.4	26	12.5	2	8	22	0.00	30.386 
15:50	45.7	45.7	45.7	25	11.9	1	5	22	0.00	30.386 
15:55	45.7	45.7	45.7	23	10.1	1	3	315	0.00	30.386 
16:00	46.0	46.0	46.0	22	9.3	1	3	338	0.00	30.392 
16:05	46.0	46.0	46.0	21	8.3	2	9	112	0.00	30.392 
16:10	45.7	45.7	45.7	22	9.1	0	2	338	0.00	30.392 
16:15	45.8	45.8	45.8	21	8.1	1	2	0	0.00	30.391 
16:20	45.8	45.8	45.8	21	8.1	2	6	112	0.00	30.391 
16:25	45.7	45.7	45.7	21	8.0	1	4	45	0.00	30.391 
16:30	45.5	45.5	45.5	20	6.8	1	4	0	0.00	30.382 
16:35	45.7	45.7	45.7	22	9.1	1	7	90	0.00	30.382 
16:40	45.8	45.8	45.8	21	8.1	2	7	90	0.00	30.382 
16:45	45.8	45.8	45.8	21	8.1	1	3	112	0.00	30.372 
16:50	46.0	46.0	46.0	21	8.3	1	5	112	0.00	30.372 
16:55	45.7	45.7	45.7	19	5.8	1	5	270	0.00	30.372 
17:00	45.4	45.4	45.4	21	7.8	0	3	292	0.00	30.381 
17:05	45.7	45.7	45.7	20	7.0	1	4	292	0.00	30.381 
17:10	45.8	45.8	45.8	21	8.1	1	5	90	0.00	30.381 
17:15	45.8	45.8	45.8	21	8.1	1	3	22	0.00	30.376 
17:20	45.8	45.8	45.8	21	8.1	1	3	90	0.00	30.376 
17:25	45.7	45.7	45.7	20	7.0	1	4	112	0.00	30.376 
17:30	45.5	45.5	45.5	20	6.8	1	5	90	0.00	30.377 
17:35	45.5	45.5	45.5	20	6.8	3	10	112	0.00	30.377 
17:40	45.5	45.5	45.5	21	7.9	1	5	90	0.00	30.377 
17:45	45.2	45.2	45.2	20	6.5	3	6	112	0.00	30.382 
17:50	45.2	45.2	45.2	21	7.6	0	3	90	0.00	30.382 
17:55	45.5	45.5	45.5	21	7.9	0	1	68	0.00	30.382 
18:00	45.5	45.5	45.5	19	5.7	1	5	90	0.00	30.383 
18:05	45.2	45.2	45.2	20	6.5	1	4	90	0.00	30.383 
18:10	44.9	44.9	44.9	21	7.4	2	6	112	0.00	30.383 
18:15	44.9	44.9	44.9	20	6.3	2	5	112	0.00	30.377 
18:20	44.8	44.8	44.8	21	7.3	2	7	90	0.00	30.377 
18:25	44.8	44.8	44.8	19	5.1	1	3	90	0.00	30.377 
18:30	44.6	44.6	44.6	20	6.0	1	4	90	0.00	30.387 
18:35	44.5	44.5	44.5	22	8.1	1	4	90	0.00	30.387 
18:40	44.5	44.5	44.5	20	6.0	2	6	112	0.00	30.387 
18:45	44.2	44.2	44.2	19	4.6	1	6	112	0.00	30.392 
18:50	44.1	44.1	44.1	20	5.6	1	5	112	0.00	30.392 
18:55	43.9	43.9	43.9	21	6.5	0	2	112	0.00	30.392 
19:00	43.9	43.9	43.9	21	6.5	0	3	248	0.00	30.389 
19:05	43.9	43.9	43.9	21	6.5	1	4	90	0.00	30.389 
19:10	43.8	43.8	43.8	21	6.4	2	5	112	0.00	30.389 
19:15	43.6	43.6	43.6	21	6.3	2	4	112	0.00	30.378 
19:20	43.5	43.5	43.5	21	6.2	2	5	112	0.00	30.378 
19:25	43.3	43.3	43.3	22	7.0	1	4	112	0.00	30.378 
19:30	43.2	43.2	43.2	22	7.0	2	5	112	0.00	30.384 
19:35	43.1	43.1	43.1	22	6.9	2	5	90	0.00	30.384 
19:40	42.9	42.9	42.9	23	7.7	1	3	90	0.00	30.384 
19:45	42.6	42.6	42.6	23	7.4	1	3	90	0.00	30.386 
19:50	42.5	42.5	42.5	23	7.3	1	3	90	0.00	30.386 
19:55	42.2	42.2	42.2	23	7.1	1	2	90	0.00	30.386 
20:00	41.9	41.9	41.9	23	6.8	0	1	90	0.00	30.384 
20:05	41.6	41.6	41.6	23	6.6	0	1	90	0.00	30.384 
20:10	41.5	41.5	41.5	24	7.4	0	2	90	0.00	30.384 
20:15	41.1	41.1	41.1	25	8.0	0	0	---	0.00	30.377 
20:20	40.6	40.6	40.6	25	7.6	0	1	90	0.00	30.377 
20:25	40.2	40.2	40.2	26	8.1	0	1	90	0.00	30.377 
20:30	39.9	39.9	39.9	26	7.8	0	0	---	0.00	30.377 
20:35	39.6	39.6	39.6	27	8.4	0	0	---	0.00	30.377 
20:40	39.3	39.3	39.3	28	9.0	0	0	---	0.00	30.377 
20:45	38.9	38.9	38.9	28	8.6	0	0	---	0.00	30.370 
20:50	38.3	38.3	38.3	28	8.1	0	0	---	0.00	30.370 
20:55	37.9	37.9	37.9	28	7.7	0	0	---	0.00	30.370 
21:00	37.3	37.3	37.3	29	8.0	0	0	---	0.00	30.370 
21:05	36.9	36.9	36.9	29	7.6	0	0	---	0.00	30.370 
21:10	36.5	36.5	36.5	30	8.0	0	0	---	0.00	30.370 
21:15	36.0	36.0	36.0	30	7.6	0	0	---	0.00	30.369 
21:20	35.6	35.6	35.6	31	8.0	0	0	---	0.00	30.369 
21:25	35.3	35.3	35.3	31	7.7	0	0	---	0.00	30.369 
21:30	34.9	34.9	34.9	32	8.1	0	0	---	0.00	30.368 
21:35	34.6	34.6	34.6	32	7.8	0	0	---	0.00	30.368 
21:40	34.1	34.1	34.1	33	8.0	0	0	---	0.00	30.368 
21:45	33.8	33.8	33.8	33	7.8	0	0	---	0.00	30.372 
21:50	33.7	33.7	33.7	34	8.3	0	0	---	0.00	30.372 
21:55	33.4	33.4	33.4	34	8.1	0	0	---	0.00	30.372 
22:00	33.1	33.1	33.1	35	8.5	0	0	---	0.00	30.371 
22:05	32.8	32.8	32.8	35	8.2	0	0	---	0.00	30.371 
22:10	32.7	32.7	32.7	35	8.1	0	0	---	0.00	30.371 
22:15	32.5	32.5	32.5	36	8.5	0	0	---	0.00	30.373 
22:20	32.2	32.2	32.2	37	8.9	0	0	---	0.00	30.373 
22:25	31.9	31.9	31.9	38	9.2	0	0	---	0.00	30.373 
22:30	31.8	31.8	31.8	39	9.7	0	0	---	0.00	30.374 
22:35	31.5	31.5	31.5	39	9.4	0	0	---	0.00	30.374 
22:40	31.3	31.3	31.3	40	9.8	0	0	---	0.00	30.374 
22:45	31.2	31.2	31.2	42	10.8	0	0	---	0.00	30.375 
22:50	31.0	31.0	31.0	41	10.1	0	0	---	0.00	30.375 
22:55	30.7	30.7	30.7	42	10.4	0	0	---	0.00	30.375 
23:00	30.4	30.4	30.4	42	10.1	0	0	---	0.00	30.369 
23:05	30.1	30.1	30.1	43	10.3	0	0	---	0.00	30.369 
23:10	29.8	29.8	29.8	45	11.1	0	0	---	0.00	30.369 
23:15	29.5	29.5	29.5	45	10.8	0	0	---	0.00	30.366 
23:20	29.3	29.3	29.3	46	11.1	0	0	---	0.00	30.366 
23:25	29.1	29.1	29.1	49	12.4	0	0	---	0.00	30.366 
23:30	29.0	29.0	29.0	51	13.2	0	0	---	0.00	30.359 
23:35	28.8	28.8	28.8	53	13.9	0	0	---	0.00	30.359 
23:40	28.7	28.7	28.7	53	13.8	0	0	---	0.00	30.359 
23:45	28.5	28.5	28.5	53	13.6	0	0	---	0.00	30.353 
23:50	28.4	28.4	28.4	53	13.5	0	0	---	0.00	30.353 
23:55	28.1	28.1	28.1	53	13.2	0	0	---	0.00	30.353 

CoCoRaHS
IN-AL-39
A2 Web Hosting
Creative Commons License
GoDaddy
search engine by freefind advanced

loaded 2018-11-15 18:25:47 • last modified 2010-11-18 10:43:29
Privacy PolicyDisclaimer
• wx.awcolley.com is powered by PmWiki v.2002016 •
• all content (unless otherwise noted) © 2018 A W Colley